sensor_id;sensor_type;location;lat;lon;timestamp;P1;durP1;ratioP1;P2;durP2;ratioP2
48205;SDS011;33995;48.202;16.260;2024-01-10T00:00:47;46.00;;;27.30;;
48205;SDS011;33995;48.202;16.260;2024-01-10T00:03:14;46.97;;;27.73;;
48205;SDS011;33995;48.202;16.260;2024-01-10T00:05:41;48.30;;;28.57;;
48205;SDS011;33995;48.202;16.260;2024-01-10T00:08:08;45.27;;;27.30;;
48205;SDS011;33995;48.202;16.260;2024-01-10T00:10:35;45.17;;;28.30;;
48205;SDS011;33995;48.202;16.260;2024-01-10T00:13:02;47.40;;;28.40;;
48205;SDS011;33995;48.202;16.260;2024-01-10T00:15:29;48.03;;;28.10;;
48205;SDS011;33995;48.202;16.260;2024-01-10T00:17:56;45.23;;;27.80;;
48205;SDS011;33995;48.202;16.260;2024-01-10T00:20:23;47.20;;;26.97;;
48205;SDS011;33995;48.202;16.260;2024-01-10T00:22:50;47.37;;;27.87;;
48205;SDS011;33995;48.202;16.260;2024-01-10T00:25:20;50.93;;;28.37;;
48205;SDS011;33995;48.202;16.260;2024-01-10T00:27:50;47.57;;;28.57;;
48205;SDS011;33995;48.202;16.260;2024-01-10T00:30:17;45.90;;;28.00;;
48205;SDS011;33995;48.202;16.260;2024-01-10T00:32:44;49.57;;;28.03;;
48205;SDS011;33995;48.202;16.260;2024-01-10T00:35:11;47.60;;;27.67;;
48205;SDS011;33995;48.202;16.260;2024-01-10T00:37:39;48.27;;;28.43;;
48205;SDS011;33995;48.202;16.260;2024-01-10T00:40:06;44.63;;;27.90;;
48205;SDS011;33995;48.202;16.260;2024-01-10T00:42:34;49.67;;;29.73;;
48205;SDS011;33995;48.202;16.260;2024-01-10T00:45:01;47.90;;;28.40;;
48205;SDS011;33995;48.202;16.260;2024-01-10T00:47:28;49.13;;;28.30;;
48205;SDS011;33995;48.202;16.260;2024-01-10T00:49:55;47.27;;;27.57;;
48205;SDS011;33995;48.202;16.260;2024-01-10T00:52:23;45.63;;;27.87;;
48205;SDS011;33995;48.202;16.260;2024-01-10T00:54:51;43.57;;;26.70;;
48205;SDS011;33995;48.202;16.260;2024-01-10T00:57:19;45.47;;;27.03;;
48205;SDS011;33995;48.202;16.260;2024-01-10T00:59:46;45.67;;;27.07;;
48205;SDS011;33995;48.202;16.260;2024-01-10T01:02:14;45.93;;;26.73;;
48205;SDS011;33995;48.202;16.260;2024-01-10T01:04:44;43.67;;;25.93;;
48205;SDS011;33995;48.202;16.260;2024-01-10T01:07:13;44.30;;;25.77;;
48205;SDS011;33995;48.202;16.260;2024-01-10T01:09:41;41.80;;;25.70;;
48205;SDS011;33995;48.202;16.260;2024-01-10T01:12:10;46.77;;;26.50;;
48205;SDS011;33995;48.202;16.260;2024-01-10T01:14:37;43.10;;;26.40;;
48205;SDS011;33995;48.202;16.260;2024-01-10T01:17:05;44.03;;;25.97;;
48205;SDS011;33995;48.202;16.260;2024-01-10T01:19:33;42.67;;;25.63;;
48205;SDS011;33995;48.202;16.260;2024-01-10T01:22:01;42.37;;;26.67;;
48205;SDS011;33995;48.202;16.260;2024-01-10T01:24:29;41.80;;;26.20;;
48205;SDS011;33995;48.202;16.260;2024-01-10T01:26:57;42.17;;;26.50;;
48205;SDS011;33995;48.202;16.260;2024-01-10T01:29:24;46.83;;;25.93;;
48205;SDS011;33995;48.202;16.260;2024-01-10T01:31:51;43.83;;;26.07;;
48205;SDS011;33995;48.202;16.260;2024-01-10T01:34:20;43.43;;;26.33;;
48205;SDS011;33995;48.202;16.260;2024-01-10T01:36:48;43.57;;;26.93;;
48205;SDS011;33995;48.202;16.260;2024-01-10T01:39:18;47.33;;;26.60;;
48205;SDS011;33995;48.202;16.260;2024-01-10T01:41:46;43.10;;;27.07;;
48205;SDS011;33995;48.202;16.260;2024-01-10T01:44:14;50.83;;;29.77;;
48205;SDS011;33995;48.202;16.260;2024-01-10T01:46:42;51.87;;;29.27;;
48205;SDS011;33995;48.202;16.260;2024-01-10T01:49:10;57.27;;;32.07;;
48205;SDS011;33995;48.202;16.260;2024-01-10T01:51:38;53.17;;;29.73;;
48205;SDS011;33995;48.202;16.260;2024-01-10T01:54:07;50.00;;;30.70;;
48205;SDS011;33995;48.202;16.260;2024-01-10T01:56:35;51.73;;;30.73;;
48205;SDS011;33995;48.202;16.260;2024-01-10T01:59:21;55.70;;;31.73;;
48205;SDS011;33995;48.202;16.260;2024-01-10T02:01:48;54.30;;;30.67;;
48205;SDS011;33995;48.202;16.260;2024-01-10T02:04:17;56.77;;;32.83;;
48205;SDS011;33995;48.202;16.260;2024-01-10T02:06:45;51.43;;;30.83;;
48205;SDS011;33995;48.202;16.260;2024-01-10T02:09:12;53.77;;;31.13;;
48205;SDS011;33995;48.202;16.260;2024-01-10T02:11:39;56.27;;;31.97;;
48205;SDS011;33995;48.202;16.260;2024-01-10T02:14:07;56.53;;;31.70;;
48205;SDS011;33995;48.202;16.260;2024-01-10T02:16:34;53.23;;;30.80;;
48205;SDS011;33995;48.202;16.260;2024-01-10T02:19:01;53.40;;;31.60;;
48205;SDS011;33995;48.202;16.260;2024-01-10T02:21:43;52.33;;;32.07;;
48205;SDS011;33995;48.202;16.260;2024-01-10T02:24:10;48.13;;;30.63;;
48205;SDS011;33995;48.202;16.260;2024-01-10T02:26:37;51.50;;;29.87;;
48205;SDS011;33995;48.202;16.260;2024-01-10T02:29:05;52.63;;;31.47;;
48205;SDS011;33995;48.202;16.260;2024-01-10T02:31:33;52.43;;;31.20;;
48205;SDS011;33995;48.202;16.260;2024-01-10T02:34:00;54.10;;;32.60;;
48205;SDS011;33995;48.202;16.260;2024-01-10T02:36:27;57.27;;;33.50;;
48205;SDS011;33995;48.202;16.260;2024-01-10T02:38:54;54.50;;;31.27;;
48205;SDS011;33995;48.202;16.260;2024-01-10T02:41:21;55.53;;;32.33;;
48205;SDS011;33995;48.202;16.260;2024-01-10T02:43:51;55.33;;;32.63;;
48205;SDS011;33995;48.202;16.260;2024-01-10T02:46:18;55.20;;;33.00;;
48205;SDS011;33995;48.202;16.260;2024-01-10T02:48:46;55.77;;;33.10;;
48205;SDS011;33995;48.202;16.260;2024-01-10T02:51:13;54.00;;;32.97;;
48205;SDS011;33995;48.202;16.260;2024-01-10T02:53:40;58.70;;;33.17;;
48205;SDS011;33995;48.202;16.260;2024-01-10T02:56:07;56.77;;;33.97;;
48205;SDS011;33995;48.202;16.260;2024-01-10T02:58:35;58.63;;;33.73;;
48205;SDS011;33995;48.202;16.260;2024-01-10T03:01:02;58.43;;;35.17;;
48205;SDS011;33995;48.202;16.260;2024-01-10T03:03:29;58.53;;;33.87;;
48205;SDS011;33995;48.202;16.260;2024-01-10T03:05:56;58.87;;;34.10;;
48205;SDS011;33995;48.202;16.260;2024-01-10T03:08:23;57.60;;;35.37;;
48205;SDS011;33995;48.202;16.260;2024-01-10T03:10:50;59.07;;;36.63;;
48205;SDS011;33995;48.202;16.260;2024-01-10T03:13:17;61.67;;;35.97;;
48205;SDS011;33995;48.202;16.260;2024-01-10T03:15:45;65.50;;;37.40;;
48205;SDS011;33995;48.202;16.260;2024-01-10T03:18:13;63.33;;;36.70;;
48205;SDS011;33995;48.202;16.260;2024-01-10T03:20:41;59.23;;;34.60;;
48205;SDS011;33995;48.202;16.260;2024-01-10T03:23:08;60.10;;;36.13;;
48205;SDS011;33995;48.202;16.260;2024-01-10T03:25:37;55.67;;;34.07;;
48205;SDS011;33995;48.202;16.260;2024-01-10T03:28:05;58.63;;;34.57;;
48205;SDS011;33995;48.202;16.260;2024-01-10T03:30:32;61.07;;;34.90;;
48205;SDS011;33995;48.202;16.260;2024-01-10T03:32:59;66.23;;;35.47;;
48205;SDS011;33995;48.202;16.260;2024-01-10T03:35:26;57.50;;;34.37;;
48205;SDS011;33995;48.202;16.260;2024-01-10T03:37:53;61.63;;;36.57;;
48205;SDS011;33995;48.202;16.260;2024-01-10T03:40:20;63.57;;;36.23;;
48205;SDS011;33995;48.202;16.260;2024-01-10T03:42:50;60.10;;;36.43;;
48205;SDS011;33995;48.202;16.260;2024-01-10T03:45:17;59.80;;;35.33;;
48205;SDS011;33995;48.202;16.260;2024-01-10T03:47:48;62.43;;;36.40;;
48205;SDS011;33995;48.202;16.260;2024-01-10T03:50:18;58.40;;;36.13;;
48205;SDS011;33995;48.202;16.260;2024-01-10T03:52:45;65.57;;;36.97;;
48205;SDS011;33995;48.202;16.260;2024-01-10T03:55:13;65.50;;;37.03;;
48205;SDS011;33995;48.202;16.260;2024-01-10T03:57:41;61.27;;;36.17;;
48205;SDS011;33995;48.202;16.260;2024-01-10T04:00:09;61.23;;;36.87;;
48205;SDS011;33995;48.202;16.260;2024-01-10T04:02:37;59.50;;;35.70;;
48205;SDS011;33995;48.202;16.260;2024-01-10T04:05:07;62.13;;;35.67;;
48205;SDS011;33995;48.202;16.260;2024-01-10T04:07:36;61.17;;;37.17;;
48205;SDS011;33995;48.202;16.260;2024-01-10T04:10:05;59.83;;;34.73;;
48205;SDS011;33995;48.202;16.260;2024-01-10T04:12:36;61.77;;;37.20;;
48205;SDS011;33995;48.202;16.260;2024-01-10T04:15:04;60.37;;;35.50;;
48205;SDS011;33995;48.202;16.260;2024-01-10T04:17:31;60.50;;;35.90;;
48205;SDS011;33995;48.202;16.260;2024-01-10T04:19:59;59.00;;;35.40;;
48205;SDS011;33995;48.202;16.260;2024-01-10T04:22:26;62.67;;;35.93;;
48205;SDS011;33995;48.202;16.260;2024-01-10T04:24:53;64.80;;;36.13;;
48205;SDS011;33995;48.202;16.260;2024-01-10T04:27:20;61.97;;;35.73;;
48205;SDS011;33995;48.202;16.260;2024-01-10T04:29:47;64.10;;;35.90;;
48205;SDS011;33995;48.202;16.260;2024-01-10T04:32:14;56.90;;;34.30;;
48205;SDS011;33995;48.202;16.260;2024-01-10T04:34:41;63.80;;;36.60;;
48205;SDS011;33995;48.202;16.260;2024-01-10T04:37:08;62.50;;;35.50;;
48205;SDS011;33995;48.202;16.260;2024-01-10T04:39:35;59.13;;;36.20;;
48205;SDS011;33995;48.202;16.260;2024-01-10T04:42:04;61.97;;;35.90;;
48205;SDS011;33995;48.202;16.260;2024-01-10T04:44:31;64.97;;;37.10;;
48205;SDS011;33995;48.202;16.260;2024-01-10T04:46:58;61.60;;;35.47;;
48205;SDS011;33995;48.202;16.260;2024-01-10T04:49:26;65.03;;;36.03;;
48205;SDS011;33995;48.202;16.260;2024-01-10T04:51:53;61.87;;;36.13;;
48205;SDS011;33995;48.202;16.260;2024-01-10T04:54:20;73.87;;;38.23;;
48205;SDS011;33995;48.202;16.260;2024-01-10T04:56:47;63.70;;;35.63;;
48205;SDS011;33995;48.202;16.260;2024-01-10T04:59:14;65.70;;;37.27;;
48205;SDS011;33995;48.202;16.260;2024-01-10T05:01:41;61.33;;;35.37;;
48205;SDS011;33995;48.202;16.260;2024-01-10T05:04:08;61.80;;;35.50;;
48205;SDS011;33995;48.202;16.260;2024-01-10T05:06:35;61.30;;;35.90;;
48205;SDS011;33995;48.202;16.260;2024-01-10T05:09:02;65.03;;;36.90;;
48205;SDS011;33995;48.202;16.260;2024-01-10T05:11:30;61.03;;;36.03;;
48205;SDS011;33995;48.202;16.260;2024-01-10T05:13:57;63.40;;;35.07;;
48205;SDS011;33995;48.202;16.260;2024-01-10T05:16:24;64.57;;;36.83;;
48205;SDS011;33995;48.202;16.260;2024-01-10T05:18:51;64.47;;;35.40;;
48205;SDS011;33995;48.202;16.260;2024-01-10T05:21:18;62.70;;;35.50;;
48205;SDS011;33995;48.202;16.260;2024-01-10T05:23:46;60.30;;;35.93;;
48205;SDS011;33995;48.202;16.260;2024-01-10T05:26:13;63.13;;;36.60;;
48205;SDS011;33995;48.202;16.260;2024-01-10T05:28:40;61.83;;;36.43;;
48205;SDS011;33995;48.202;16.260;2024-01-10T05:31:07;64.77;;;36.87;;
48205;SDS011;33995;48.202;16.260;2024-01-10T05:33:35;64.80;;;36.93;;
48205;SDS011;33995;48.202;16.260;2024-01-10T05:36:02;64.77;;;37.90;;
48205;SDS011;33995;48.202;16.260;2024-01-10T05:38:29;60.77;;;36.17;;
48205;SDS011;33995;48.202;16.260;2024-01-10T05:40:56;60.90;;;36.70;;
48205;SDS011;33995;48.202;16.260;2024-01-10T05:43:23;62.20;;;36.10;;
48205;SDS011;33995;48.202;16.260;2024-01-10T05:45:50;63.50;;;36.50;;
48205;SDS011;33995;48.202;16.260;2024-01-10T05:48:17;62.87;;;35.57;;
48205;SDS011;33995;48.202;16.260;2024-01-10T05:50:44;61.70;;;35.53;;
48205;SDS011;33995;48.202;16.260;2024-01-10T05:53:11;63.50;;;36.27;;
48205;SDS011;33995;48.202;16.260;2024-01-10T05:55:43;60.77;;;35.73;;
48205;SDS011;33995;48.202;16.260;2024-01-10T05:58:11;62.77;;;36.80;;
48205;SDS011;33995;48.202;16.260;2024-01-10T06:00:38;60.07;;;35.67;;
48205;SDS011;33995;48.202;16.260;2024-01-10T06:03:05;62.00;;;35.60;;
48205;SDS011;33995;48.202;16.260;2024-01-10T06:05:32;61.73;;;36.40;;
48205;SDS011;33995;48.202;16.260;2024-01-10T06:07:59;65.93;;;35.57;;
48205;SDS011;33995;48.202;16.260;2024-01-10T06:10:26;64.60;;;36.53;;
48205;SDS011;33995;48.202;16.260;2024-01-10T06:12:53;61.17;;;36.57;;
48205;SDS011;33995;48.202;16.260;2024-01-10T06:15:20;62.33;;;36.83;;
48205;SDS011;33995;48.202;16.260;2024-01-10T06:17:47;60.03;;;36.23;;
48205;SDS011;33995;48.202;16.260;2024-01-10T06:20:16;64.53;;;36.83;;
48205;SDS011;33995;48.202;16.260;2024-01-10T06:22:44;63.63;;;37.33;;
48205;SDS011;33995;48.202;16.260;2024-01-10T06:25:13;66.60;;;37.97;;
48205;SDS011;33995;48.202;16.260;2024-01-10T06:27:40;66.60;;;36.70;;
48205;SDS011;33995;48.202;16.260;2024-01-10T06:30:07;63.60;;;36.73;;
48205;SDS011;33995;48.202;16.260;2024-01-10T06:32:36;63.23;;;37.43;;
48205;SDS011;33995;48.202;16.260;2024-01-10T06:35:04;64.30;;;38.20;;
48205;SDS011;33995;48.202;16.260;2024-01-10T06:37:37;63.57;;;36.83;;
48205;SDS011;33995;48.202;16.260;2024-01-10T06:40:05;67.80;;;37.77;;
48205;SDS011;33995;48.202;16.260;2024-01-10T06:42:33;66.13;;;36.93;;
48205;SDS011;33995;48.202;16.260;2024-01-10T06:45:00;61.90;;;37.40;;
48205;SDS011;33995;48.202;16.260;2024-01-10T06:47:27;69.53;;;39.37;;
48205;SDS011;33995;48.202;16.260;2024-01-10T06:49:54;66.50;;;38.30;;
48205;SDS011;33995;48.202;16.260;2024-01-10T06:52:21;63.03;;;38.97;;
48205;SDS011;33995;48.202;16.260;2024-01-10T06:54:48;70.10;;;40.10;;
48205;SDS011;33995;48.202;16.260;2024-01-10T06:57:15;68.07;;;39.10;;
48205;SDS011;33995;48.202;16.260;2024-01-10T06:59:44;66.43;;;39.33;;
48205;SDS011;33995;48.202;16.260;2024-01-10T07:02:11;64.83;;;39.30;;
48205;SDS011;33995;48.202;16.260;2024-01-10T07:04:38;70.03;;;38.83;;
48205;SDS011;33995;48.202;16.260;2024-01-10T07:07:05;76.57;;;40.30;;
48205;SDS011;33995;48.202;16.260;2024-01-10T07:09:35;70.87;;;41.90;;
48205;SDS011;33995;48.202;16.260;2024-01-10T07:12:02;68.57;;;39.53;;
48205;SDS011;33995;48.202;16.260;2024-01-10T07:14:30;65.93;;;39.90;;
48205;SDS011;33995;48.202;16.260;2024-01-10T07:16:59;65.47;;;39.77;;
48205;SDS011;33995;48.202;16.260;2024-01-10T07:19:26;65.93;;;40.33;;
48205;SDS011;33995;48.202;16.260;2024-01-10T07:21:55;69.00;;;41.00;;
48205;SDS011;33995;48.202;16.260;2024-01-10T07:24:22;72.27;;;41.03;;
48205;SDS011;33995;48.202;16.260;2024-01-10T07:26:49;67.23;;;41.17;;
48205;SDS011;33995;48.202;16.260;2024-01-10T07:29:17;67.57;;;39.13;;
48205;SDS011;33995;48.202;16.260;2024-01-10T07:31:46;66.07;;;40.07;;
48205;SDS011;33995;48.202;16.260;2024-01-10T07:34:14;67.80;;;41.90;;
48205;SDS011;33995;48.202;16.260;2024-01-10T07:36:42;64.20;;;39.50;;
48205;SDS011;33995;48.202;16.260;2024-01-10T07:39:09;67.23;;;39.83;;
48205;SDS011;33995;48.202;16.260;2024-01-10T07:41:36;74.63;;;41.57;;
48205;SDS011;33995;48.202;16.260;2024-01-10T07:44:04;67.50;;;40.27;;
48205;SDS011;33995;48.202;16.260;2024-01-10T07:46:35;70.93;;;40.40;;
48205;SDS011;33995;48.202;16.260;2024-01-10T07:49:04;68.27;;;40.33;;
48205;SDS011;33995;48.202;16.260;2024-01-10T07:51:31;69.47;;;41.80;;
48205;SDS011;33995;48.202;16.260;2024-01-10T07:54:01;73.73;;;41.67;;
48205;SDS011;33995;48.202;16.260;2024-01-10T07:56:29;71.47;;;41.90;;
48205;SDS011;33995;48.202;16.260;2024-01-10T07:58:56;69.70;;;41.50;;
48205;SDS011;33995;48.202;16.260;2024-01-10T08:01:24;70.90;;;41.67;;
48205;SDS011;33995;48.202;16.260;2024-01-10T08:03:52;70.90;;;41.00;;
48205;SDS011;33995;48.202;16.260;2024-01-10T08:06:22;71.03;;;42.63;;
48205;SDS011;33995;48.202;16.260;2024-01-10T08:08:58;69.33;;;41.10;;
48205;SDS011;33995;48.202;16.260;2024-01-10T08:11:25;76.63;;;41.27;;
48205;SDS011;33995;48.202;16.260;2024-01-10T08:13:52;73.93;;;43.47;;
48205;SDS011;33995;48.202;16.260;2024-01-10T08:16:20;71.70;;;42.00;;
48205;SDS011;33995;48.202;16.260;2024-01-10T08:18:47;70.90;;;41.83;;
48205;SDS011;33995;48.202;16.260;2024-01-10T08:21:15;65.73;;;39.83;;
48205;SDS011;33995;48.202;16.260;2024-01-10T08:23:42;66.43;;;42.27;;
48205;SDS011;33995;48.202;16.260;2024-01-10T08:26:09;81.77;;;45.23;;
48205;SDS011;33995;48.202;16.260;2024-01-10T08:28:36;76.60;;;43.90;;
48205;SDS011;33995;48.202;16.260;2024-01-10T08:31:04;76.57;;;44.30;;
48205;SDS011;33995;48.202;16.260;2024-01-10T08:33:32;83.07;;;47.83;;
48205;SDS011;33995;48.202;16.260;2024-01-10T08:35:59;64.27;;;40.93;;
48205;SDS011;33995;48.202;16.260;2024-01-10T08:38:26;65.47;;;40.07;;
48205;SDS011;33995;48.202;16.260;2024-01-10T08:40:53;65.43;;;39.70;;
48205;SDS011;33995;48.202;16.260;2024-01-10T08:43:20;64.27;;;38.10;;
48205;SDS011;33995;48.202;16.260;2024-01-10T08:45:47;66.20;;;39.70;;
48205;SDS011;33995;48.202;16.260;2024-01-10T08:48:15;66.30;;;39.57;;
48205;SDS011;33995;48.202;16.260;2024-01-10T08:50:42;57.17;;;36.53;;
48205;SDS011;33995;48.202;16.260;2024-01-10T08:53:10;62.90;;;38.67;;
48205;SDS011;33995;48.202;16.260;2024-01-10T08:55:37;63.03;;;37.27;;
48205;SDS011;33995;48.202;16.260;2024-01-10T08:58:04;60.93;;;38.70;;
48205;SDS011;33995;48.202;16.260;2024-01-10T09:00:32;61.77;;;39.33;;
48205;SDS011;33995;48.202;16.260;2024-01-10T09:02:59;64.63;;;41.57;;
48205;SDS011;33995;48.202;16.260;2024-01-10T09:05:27;64.83;;;41.17;;
48205;SDS011;33995;48.202;16.260;2024-01-10T09:07:54;60.97;;;37.30;;
48205;SDS011;33995;48.202;16.260;2024-01-10T09:10:21;60.77;;;38.13;;
48205;SDS011;33995;48.202;16.260;2024-01-10T09:12:49;65.77;;;40.20;;
48205;SDS011;33995;48.202;16.260;2024-01-10T09:15:16;61.03;;;38.53;;
48205;SDS011;33995;48.202;16.260;2024-01-10T09:17:43;63.77;;;39.73;;
48205;SDS011;33995;48.202;16.260;2024-01-10T09:20:11;63.83;;;40.63;;
48205;SDS011;33995;48.202;16.260;2024-01-10T09:22:39;66.80;;;40.03;;
48205;SDS011;33995;48.202;16.260;2024-01-10T09:25:06;65.47;;;41.43;;
48205;SDS011;33995;48.202;16.260;2024-01-10T09:27:33;70.33;;;42.97;;
48205;SDS011;33995;48.202;16.260;2024-01-10T09:30:04;68.23;;;41.53;;
48205;SDS011;33995;48.202;16.260;2024-01-10T09:32:35;63.70;;;39.13;;
48205;SDS011;33995;48.202;16.260;2024-01-10T09:35:03;63.57;;;39.17;;
48205;SDS011;33995;48.202;16.260;2024-01-10T09:37:31;66.53;;;39.80;;
48205;SDS011;33995;48.202;16.260;2024-01-10T09:40:00;61.27;;;37.97;;
48205;SDS011;33995;48.202;16.260;2024-01-10T09:42:27;58.90;;;38.07;;
48205;SDS011;33995;48.202;16.260;2024-01-10T09:45:03;63.63;;;38.30;;
48205;SDS011;33995;48.202;16.260;2024-01-10T09:47:31;66.90;;;38.33;;
48205;SDS011;33995;48.202;16.260;2024-01-10T09:50:01;59.80;;;35.90;;
48205;SDS011;33995;48.202;16.260;2024-01-10T09:52:32;61.47;;;38.27;;
48205;SDS011;33995;48.202;16.260;2024-01-10T09:55:08;56.27;;;35.60;;
48205;SDS011;33995;48.202;16.260;2024-01-10T09:57:36;54.63;;;35.43;;
48205;SDS011;33995;48.202;16.260;2024-01-10T10:00:03;50.20;;;33.03;;
48205;SDS011;33995;48.202;16.260;2024-01-10T10:02:32;50.47;;;33.30;;
48205;SDS011;33995;48.202;16.260;2024-01-10T10:05:04;49.83;;;32.90;;
48205;SDS011;33995;48.202;16.260;2024-01-10T10:07:43;51.83;;;32.67;;
48205;SDS011;33995;48.202;16.260;2024-01-10T10:10:10;54.87;;;33.30;;
48205;SDS011;33995;48.202;16.260;2024-01-10T10:12:45;50.43;;;32.27;;
48205;SDS011;33995;48.202;16.260;2024-01-10T10:15:14;52.73;;;33.73;;
48205;SDS011;33995;48.202;16.260;2024-01-10T10:17:43;49.83;;;32.70;;
48205;SDS011;33995;48.202;16.260;2024-01-10T10:28:02;49.43;;;31.70;;
48205;SDS011;33995;48.202;16.260;2024-01-10T10:30:31;49.83;;;33.00;;
48205;SDS011;33995;48.202;16.260;2024-01-10T10:33:02;52.47;;;32.77;;
48205;SDS011;33995;48.202;16.260;2024-01-10T10:35:30;49.77;;;32.23;;
48205;SDS011;33995;48.202;16.260;2024-01-10T10:38:07;54.03;;;33.83;;
48205;SDS011;33995;48.202;16.260;2024-01-10T10:40:36;48.43;;;32.73;;
48205;SDS011;33995;48.202;16.260;2024-01-10T10:43:03;52.20;;;32.83;;
48205;SDS011;33995;48.202;16.260;2024-01-10T10:45:31;51.30;;;32.33;;
48205;SDS011;33995;48.202;16.260;2024-01-10T10:48:00;47.53;;;32.33;;
48205;SDS011;33995;48.202;16.260;2024-01-10T10:50:33;48.20;;;32.17;;
48205;SDS011;33995;48.202;16.260;2024-01-10T10:53:03;49.13;;;32.07;;
48205;SDS011;33995;48.202;16.260;2024-01-10T10:55:31;48.10;;;32.90;;
48205;SDS011;33995;48.202;16.260;2024-01-10T10:58:01;55.13;;;33.10;;
48205;SDS011;33995;48.202;16.260;2024-01-10T11:00:37;52.13;;;32.13;;
48205;SDS011;33995;48.202;16.260;2024-01-10T11:03:07;49.53;;;31.37;;
48205;SDS011;33995;48.202;16.260;2024-01-10T11:05:37;43.03;;;29.63;;
48205;SDS011;33995;48.202;16.260;2024-01-10T11:08:08;46.33;;;31.80;;
48205;SDS011;33995;48.202;16.260;2024-01-10T11:10:39;45.70;;;30.23;;
48205;SDS011;33995;48.202;16.260;2024-01-10T11:16:13;48.97;;;29.77;;
48205;SDS011;33995;48.202;16.260;2024-01-10T11:24:04;49.47;;;31.60;;
48205;SDS011;33995;48.202;16.260;2024-01-10T11:26:33;47.10;;;30.70;;
48205;SDS011;33995;48.202;16.260;2024-01-10T11:29:00;47.53;;;30.53;;
48205;SDS011;33995;48.202;16.260;2024-01-10T11:31:31;46.83;;;31.13;;
48205;SDS011;33995;48.202;16.260;2024-01-10T11:34:00;44.40;;;30.53;;
48205;SDS011;33995;48.202;16.260;2024-01-10T11:36:29;50.80;;;30.60;;
48205;SDS011;33995;48.202;16.260;2024-01-10T11:39:00;48.63;;;29.90;;
48205;SDS011;33995;48.202;16.260;2024-01-10T11:41:32;49.20;;;29.77;;
48205;SDS011;33995;48.202;16.260;2024-01-10T11:49:10;43.03;;;29.00;;
48205;SDS011;33995;48.202;16.260;2024-01-10T11:51:43;43.60;;;28.80;;
48205;SDS011;33995;48.202;16.260;2024-01-10T11:54:34;42.33;;;26.97;;
48205;SDS011;33995;48.202;16.260;2024-01-10T11:57:07;42.87;;;26.57;;
48205;SDS011;33995;48.202;16.260;2024-01-10T11:59:41;42.73;;;26.90;;
48205;SDS011;33995;48.202;16.260;2024-01-10T12:02:12;37.50;;;26.00;;
48205;SDS011;33995;48.202;16.260;2024-01-10T12:04:41;39.50;;;25.50;;
48205;SDS011;33995;48.202;16.260;2024-01-10T12:07:14;38.13;;;25.67;;
48205;SDS011;33995;48.202;16.260;2024-01-10T12:09:42;31.63;;;21.47;;
48205;SDS011;33995;48.202;16.260;2024-01-10T12:12:14;29.90;;;20.00;;
48205;SDS011;33995;48.202;16.260;2024-01-10T12:14:41;27.77;;;18.83;;
48205;SDS011;33995;48.202;16.260;2024-01-10T12:17:12;27.97;;;18.50;;
48205;SDS011;33995;48.202;16.260;2024-01-10T12:19:40;24.40;;;17.73;;
48205;SDS011;33995;48.202;16.260;2024-01-10T12:22:12;23.60;;;17.53;;
48205;SDS011;33995;48.202;16.260;2024-01-10T12:24:43;27.07;;;18.10;;
48205;SDS011;33995;48.202;16.260;2024-01-10T12:27:21;26.07;;;18.77;;
48205;SDS011;33995;48.202;16.260;2024-01-10T12:29:50;25.87;;;18.17;;
48205;SDS011;33995;48.202;16.260;2024-01-10T12:32:20;24.57;;;17.97;;
48205;SDS011;33995;48.202;16.260;2024-01-10T12:34:54;25.97;;;18.30;;
48205;SDS011;33995;48.202;16.260;2024-01-10T12:37:24;26.50;;;18.03;;
48205;SDS011;33995;48.202;16.260;2024-01-10T12:39:51;26.87;;;19.20;;
48205;SDS011;33995;48.202;16.260;2024-01-10T12:42:18;28.10;;;19.50;;
48205;SDS011;33995;48.202;16.260;2024-01-10T12:44:45;26.73;;;19.07;;
48205;SDS011;33995;48.202;16.260;2024-01-10T12:47:20;27.37;;;18.43;;
48205;SDS011;33995;48.202;16.260;2024-01-10T12:49:48;24.90;;;18.40;;
48205;SDS011;33995;48.202;16.260;2024-01-10T12:52:15;24.93;;;18.50;;
48205;SDS011;33995;48.202;16.260;2024-01-10T12:54:47;29.07;;;19.97;;
48205;SDS011;33995;48.202;16.260;2024-01-10T12:57:15;28.50;;;19.63;;
48205;SDS011;33995;48.202;16.260;2024-01-10T12:59:42;28.10;;;20.07;;
48205;SDS011;33995;48.202;16.260;2024-01-10T13:02:09;29.23;;;19.90;;
48205;SDS011;33995;48.202;16.260;2024-01-10T13:04:36;32.53;;;22.47;;
48205;SDS011;33995;48.202;16.260;2024-01-10T13:07:03;34.33;;;21.60;;
48205;SDS011;33995;48.202;16.260;2024-01-10T13:09:30;32.60;;;23.00;;
48205;SDS011;33995;48.202;16.260;2024-01-10T13:11:57;31.83;;;23.03;;
48205;SDS011;33995;48.202;16.260;2024-01-10T13:14:26;35.50;;;24.47;;
48205;SDS011;33995;48.202;16.260;2024-01-10T13:16:53;32.63;;;23.27;;
48205;SDS011;33995;48.202;16.260;2024-01-10T13:19:25;31.27;;;24.30;;
48205;SDS011;33995;48.202;16.260;2024-01-10T13:21:53;33.73;;;24.50;;
48205;SDS011;33995;48.202;16.260;2024-01-10T13:24:20;36.83;;;25.67;;
48205;SDS011;33995;48.202;16.260;2024-01-10T13:26:47;36.93;;;25.77;;
48205;SDS011;33995;48.202;16.260;2024-01-10T13:29:15;35.77;;;25.87;;
48205;SDS011;33995;48.202;16.260;2024-01-10T13:31:42;34.07;;;25.30;;
48205;SDS011;33995;48.202;16.260;2024-01-10T13:34:09;36.57;;;27.30;;
48205;SDS011;33995;48.202;16.260;2024-01-10T13:36:38;35.60;;;25.90;;
48205;SDS011;33995;48.202;16.260;2024-01-10T13:39:05;36.20;;;25.23;;
48205;SDS011;33995;48.202;16.260;2024-01-10T13:41:34;31.70;;;23.87;;
48205;SDS011;33995;48.202;16.260;2024-01-10T13:44:01;30.93;;;23.73;;
48205;SDS011;33995;48.202;16.260;2024-01-10T13:46:29;31.50;;;24.00;;
48205;SDS011;33995;48.202;16.260;2024-01-10T13:48:56;29.23;;;23.27;;
48205;SDS011;33995;48.202;16.260;2024-01-10T13:51:23;32.40;;;24.10;;
48205;SDS011;33995;48.202;16.260;2024-01-10T13:53:49;32.63;;;24.10;;
48205;SDS011;33995;48.202;16.260;2024-01-10T13:56:18;29.73;;;23.73;;
48205;SDS011;33995;48.202;16.260;2024-01-10T13:58:48;29.13;;;23.43;;
48205;SDS011;33995;48.202;16.260;2024-01-10T14:01:15;30.53;;;22.57;;
48205;SDS011;33995;48.202;16.260;2024-01-10T14:03:42;29.40;;;22.47;;
48205;SDS011;33995;48.202;16.260;2024-01-10T14:06:09;27.23;;;22.47;;
48205;SDS011;33995;48.202;16.260;2024-01-10T14:08:37;29.60;;;23.73;;
48205;SDS011;33995;48.202;16.260;2024-01-10T14:11:06;26.93;;;22.60;;
48205;SDS011;33995;48.202;16.260;2024-01-10T14:13:33;26.47;;;20.83;;
48205;SDS011;33995;48.202;16.260;2024-01-10T14:16:01;27.67;;;23.27;;
48205;SDS011;33995;48.202;16.260;2024-01-10T14:18:29;25.83;;;21.20;;
48205;SDS011;33995;48.202;16.260;2024-01-10T14:20:56;27.03;;;20.33;;
48205;SDS011;33995;48.202;16.260;2024-01-10T14:23:23;27.90;;;21.77;;
48205;SDS011;33995;48.202;16.260;2024-01-10T14:25:51;26.93;;;21.30;;
48205;SDS011;33995;48.202;16.260;2024-01-10T14:28:20;28.50;;;21.10;;
48205;SDS011;33995;48.202;16.260;2024-01-10T14:30:47;28.43;;;21.17;;
48205;SDS011;33995;48.202;16.260;2024-01-10T14:33:14;28.63;;;21.37;;
48205;SDS011;33995;48.202;16.260;2024-01-10T14:35:42;26.80;;;21.10;;